createdAt,value
2018-01-05T00:00:19.174Z,5.5
2018-01-05T00:01:21.139Z,5.4
2018-01-05T00:02:23.154Z,5.3
2018-01-05T00:03:25.041Z,5.0
2018-01-05T00:04:27.024Z,5.4
2018-01-05T00:05:29.116Z,3.7
2018-01-05T00:06:30.995Z,5.2
2018-01-05T00:07:32.955Z,4.7
2018-01-05T00:08:34.935Z,4.9
2018-01-05T00:09:36.922Z,5.0
2018-01-05T00:10:38.960Z,5.1
2018-01-05T00:11:40.939Z,4.9
2018-01-05T00:12:42.882Z,5.2
2018-01-05T00:13:44.872Z,4.5
2018-01-05T00:14:46.765Z,4.2
2018-01-05T00:15:48.778Z,4.5
2018-01-05T00:16:50.745Z,4.5
2018-01-05T00:17:52.657Z,5.6
2018-01-05T00:18:54.672Z,4.2
2018-01-05T00:19:56.640Z,4.4
2018-01-05T00:20:58.599Z,4.6
2018-01-05T00:22:00.615Z,4.3
2018-01-05T00:23:02.613Z,4.1
2018-01-05T00:24:04.595Z,3.8
2018-01-05T00:25:06.490Z,4.6
2018-01-05T00:26:08.521Z,4.3
2018-01-05T00:27:10.449Z,4.5
2018-01-05T00:28:12.413Z,4.4
2018-01-05T00:29:14.283Z,4.9
2018-01-05T00:30:16.206Z,3.6
2018-01-05T00:31:18.159Z,4.2
2018-01-05T00:32:20.101Z,4.2
2018-01-05T00:33:22.064Z,3.6
2018-01-05T00:34:23.933Z,4.0
2018-01-05T00:35:25.822Z,3.7
2018-01-05T00:36:27.819Z,4.0
2018-01-05T00:37:29.839Z,3.6
2018-01-05T00:38:31.843Z,3.4
2018-01-05T00:39:33.747Z,4.0
2018-01-05T00:40:35.699Z,3.8
2018-01-05T00:41:37.678Z,4.1
2018-01-05T00:42:39.543Z,3.4
2018-01-05T00:43:41.393Z,3.6
2018-01-05T00:44:43.393Z,3.3
2018-01-05T00:45:45.436Z,3.7
2018-01-05T00:46:47.440Z,3.6
2018-01-05T00:47:49.310Z,4.2
2018-01-05T00:48:51.216Z,4.5
2018-01-05T00:49:53.093Z,3.4
2018-01-05T00:50:55.026Z,4.3
2018-01-05T00:51:56.999Z,3.7
2018-01-05T00:52:58.845Z,3.7
2018-01-05T00:54:00.799Z,3.7
2018-01-05T00:55:02.672Z,4.4
2018-01-05T00:56:04.613Z,4.5
2018-01-05T00:57:06.500Z,3.3
2018-01-05T00:58:08.445Z,3.9
2018-01-05T00:59:10.378Z,3.8
2018-01-05T01:00:12.291Z,3.9
2018-01-05T01:01:14.215Z,3.3
2018-01-05T01:02:16.071Z,3.8
2018-01-05T01:03:17.967Z,3.3
2018-01-05T01:04:19.887Z,3.6
2018-01-05T01:05:21.858Z,3.1
2018-01-05T01:06:23.821Z,3.9
2018-01-05T01:07:25.690Z,3.8
2018-01-05T01:08:27.548Z,4.2
2018-01-05T01:09:29.533Z,3.9
2018-01-05T01:10:32.284Z,3.4
2018-01-05T01:11:34.170Z,3.5
2018-01-05T01:12:36.111Z,3.6
2018-01-05T01:13:38.043Z,4.5
2018-01-05T01:14:39.982Z,3.6
2018-01-05T01:15:41.961Z,3.5
2018-01-05T01:16:43.796Z,4.2
2018-01-05T01:17:45.723Z,3.8
2018-01-05T01:18:47.645Z,3.4
2018-01-05T01:19:49.533Z,3.6
2018-01-05T01:20:51.510Z,4.6
2018-01-05T01:21:53.546Z,4.6
2018-01-05T01:22:55.433Z,4.0
2018-01-05T01:23:57.392Z,3.3
2018-01-05T01:24:59.383Z,4.1
2018-01-05T01:26:01.277Z,3.1
2018-01-05T01:27:03.243Z,4.3
2018-01-05T01:28:05.166Z,3.7
2018-01-05T01:29:07.069Z,3.4
2018-01-05T01:30:09.069Z,3.5
2018-01-05T01:31:10.954Z,4.0
2018-01-05T01:32:12.965Z,4.0
2018-01-05T01:33:14.885Z,3.6
2018-01-05T01:34:16.780Z,3.7
2018-01-05T01:35:18.695Z,3.6
2018-01-05T01:36:20.627Z,3.7
2018-01-05T01:37:22.570Z,4.1
2018-01-05T01:38:24.495Z,3.9
2018-01-05T01:39:26.422Z,3.8
2018-01-05T01:40:28.232Z,3.6
2018-01-05T01:41:30.140Z,3.5
2018-01-05T01:42:32.060Z,4.0
2018-01-05T01:43:33.999Z,3.7
2018-01-05T01:44:35.939Z,3.6
2018-01-05T01:45:37.921Z,3.5
2018-01-05T01:46:39.819Z,3.9
2018-01-05T01:47:41.678Z,4.4
2018-01-05T01:48:43.597Z,4.2
2018-01-05T01:49:45.546Z,4.1
2018-01-05T01:50:47.434Z,4.3
2018-01-05T01:51:49.343Z,4.4
2018-01-05T01:52:51.297Z,4.0
2018-01-05T01:53:53.197Z,5.0
2018-01-05T01:54:55.299Z,4.6
2018-01-05T01:55:57.271Z,3.8
2018-01-05T01:56:59.186Z,3.3
2018-01-05T01:58:01.091Z,4.7
2018-01-05T01:59:02.976Z,4.3
2018-01-05T02:00:04.935Z,4.8
2018-01-05T02:01:06.842Z,4.2
2018-01-05T02:02:08.810Z,3.9
2018-01-05T02:03:10.761Z,4.4
2018-01-05T02:04:12.588Z,4.5
2018-01-05T02:05:14.528Z,3.8
2018-01-05T02:06:16.539Z,4.4
2018-01-05T02:07:18.468Z,4.2
2018-01-05T02:08:20.454Z,4.3
2018-01-05T02:09:22.440Z,4.0
2018-01-05T02:10:24.402Z,4.2
2018-01-05T02:11:26.378Z,4.3
2018-01-05T02:12:28.230Z,3.4
2018-01-05T02:13:30.193Z,4.8
2018-01-05T02:14:32.090Z,3.8
2018-01-05T02:15:34.014Z,4.0
2018-01-05T02:16:36.029Z,3.8
2018-01-05T02:17:37.966Z,4.4
2018-01-05T02:18:39.973Z,3.7
2018-01-05T02:19:41.972Z,4.1
2018-01-05T02:20:43.875Z,3.8
2018-01-05T02:21:45.805Z,3.6
2018-01-05T02:22:47.791Z,3.9
2018-01-05T02:23:49.749Z,4.7
2018-01-05T02:24:51.630Z,4.2
2018-01-05T02:25:53.603Z,4.4
2018-01-05T02:26:55.488Z,4.6
2018-01-05T02:27:57.430Z,4.4
2018-01-05T02:28:59.404Z,4.3
2018-01-05T02:30:01.319Z,4.3
2018-01-05T02:31:03.254Z,4.3
2018-01-05T02:32:05.210Z,4.2
2018-01-05T02:33:07.137Z,5.4
2018-01-05T02:34:09.138Z,4.1
2018-01-05T02:35:11.087Z,4.5
2018-01-05T02:36:12.974Z,4.9
2018-01-05T02:37:15.019Z,4.6
2018-01-05T02:38:16.954Z,4.9
2018-01-05T02:39:18.839Z,4.7
2018-01-05T02:40:20.802Z,5.1
2018-01-05T02:41:22.744Z,4.7
2018-01-05T02:42:24.675Z,4.3
2018-01-05T02:43:26.574Z,4.2
2018-01-05T02:44:28.468Z,4.4
2018-01-05T02:45:30.388Z,4.5
2018-01-05T02:46:32.303Z,4.9
2018-01-05T02:47:34.210Z,4.9
2018-01-05T02:48:36.117Z,4.9
2018-01-05T02:49:38.029Z,4.2
2018-01-05T02:50:39.955Z,4.5
2018-01-05T02:51:42.043Z,4.9
2018-01-05T02:52:43.919Z,4.7
2018-01-05T02:53:45.846Z,4.9
2018-01-05T02:54:47.801Z,4.4
2018-01-05T03:01:02.421Z,3.8
2018-01-05T03:02:04.062Z,3.7
2018-01-05T03:03:05.723Z,4.6
2018-01-05T03:04:07.435Z,4.3
2018-01-05T03:05:09.104Z,4.7
2018-01-05T03:06:10.780Z,4.9
2018-01-05T03:07:12.578Z,5.0
2018-01-05T03:08:14.389Z,4.9
2018-01-05T03:09:16.211Z,5.2
2018-01-05T03:10:18.015Z,3.8
2018-01-05T03:11:19.855Z,4.5
2018-01-05T03:12:21.711Z,5.1
2018-01-05T03:13:23.487Z,4.7
2018-01-05T03:14:25.289Z,3.9
2018-01-05T03:15:27.084Z,3.8
2018-01-05T03:16:28.955Z,4.7
2018-01-05T03:17:30.827Z,4.6
2018-01-05T03:18:32.759Z,4.1
2018-01-05T03:19:34.680Z,4.1
2018-01-05T03:20:36.655Z,4.1
2018-01-05T03:21:38.501Z,5.3
2018-01-05T03:22:40.412Z,4.2
2018-01-05T03:23:42.307Z,3.6
2018-01-05T03:24:44.211Z,3.9
2018-01-05T03:25:46.148Z,4.6
2018-01-05T03:26:48.103Z,4.5
2018-01-05T03:27:49.985Z,4.9
2018-01-05T03:28:51.856Z,4.7
2018-01-05T03:29:53.788Z,3.6
2018-01-05T03:30:55.677Z,5.0
2018-01-05T03:31:57.529Z,4.4
2018-01-05T03:32:59.350Z,3.9
2018-01-05T03:34:01.262Z,4.4
2018-01-05T03:35:03.136Z,5.0
2018-01-05T03:36:05.103Z,4.3
2018-01-05T03:37:07.154Z,4.3
2018-01-05T03:38:09.163Z,5.1
2018-01-05T03:39:11.018Z,4.6
2018-01-05T03:40:13.006Z,3.9
2018-01-05T03:41:14.952Z,4.6
2018-01-05T03:42:16.863Z,4.6
2018-01-05T03:43:18.769Z,4.8
2018-01-05T03:44:20.713Z,5.2
2018-01-05T03:45:22.618Z,4.5
2018-01-05T03:46:24.593Z,5.0
2018-01-05T03:47:26.533Z,4.2
2018-01-05T03:48:28.479Z,4.7
2018-01-05T03:49:30.575Z,4.7
2018-01-05T03:50:32.503Z,5.3
2018-01-05T03:51:34.462Z,5.1
2018-01-05T03:52:36.465Z,5.7
2018-01-05T03:53:38.471Z,4.9
2018-01-05T03:54:40.296Z,5.7
2018-01-05T03:55:42.259Z,4.3
2018-01-05T03:56:44.319Z,4.3
2018-01-05T03:57:46.171Z,4.9
2018-01-05T03:58:48.045Z,4.3
2018-01-05T03:59:50.004Z,3.9
2018-01-05T04:00:51.938Z,4.7
2018-01-05T04:01:53.836Z,5.0
2018-01-05T04:02:55.771Z,4.7
2018-01-05T04:03:57.712Z,4.6
2018-01-05T04:04:59.708Z,4.7
2018-01-05T04:06:01.673Z,4.5
2018-01-05T04:07:03.667Z,4.7
2018-01-05T04:08:05.648Z,4.0
2018-01-05T04:09:07.632Z,4.0
2018-01-05T04:10:09.706Z,4.1
2018-01-05T04:11:11.864Z,4.7
2018-01-05T04:12:13.921Z,4.1
2018-01-05T04:13:15.847Z,4.0
2018-01-05T04:14:18.188Z,4.8
2018-01-05T04:15:20.680Z,4.9
2018-01-05T04:16:23.555Z,4.1
2018-01-05T04:17:26.278Z,4.1
2018-01-05T04:18:29.539Z,3.4
2018-01-05T04:19:32.241Z,4.3
2018-01-05T04:20:34.310Z,4.6
2018-01-05T04:21:36.385Z,4.3
2018-01-05T04:22:38.489Z,4.6
2018-01-05T04:23:40.522Z,4.1
2018-01-05T04:24:42.470Z,5.1
2018-01-05T04:25:44.489Z,5.1
2018-01-05T04:26:46.561Z,4.3
2018-01-05T04:27:48.448Z,4.8
2018-01-05T04:28:50.314Z,3.7
2018-01-05T04:29:52.238Z,4.9
2018-01-05T04:30:54.189Z,4.7
2018-01-05T04:31:56.230Z,4.1
2018-01-05T04:32:58.327Z,4.5
2018-01-05T04:34:00.380Z,4.5
2018-01-05T04:35:02.443Z,4.5
2018-01-05T04:36:04.456Z,5.5
2018-01-05T04:37:06.408Z,4.8
2018-01-05T04:38:08.431Z,5.5
2018-01-05T04:39:10.508Z,5.0
2018-01-05T04:40:12.707Z,4.7
2018-01-05T04:41:14.690Z,5.2
2018-01-05T04:42:16.691Z,5.6
2018-01-05T04:43:18.805Z,4.7
2018-01-05T04:44:20.920Z,5.0
2018-01-05T04:45:22.977Z,5.4
2018-01-05T04:46:25.000Z,5.4
2018-01-05T04:47:27.003Z,5.3
2018-01-05T04:48:28.959Z,4.3
2018-01-05T04:49:30.895Z,4.9
2018-01-05T04:50:32.856Z,5.1
2018-01-05T04:51:34.993Z,5.0
2018-01-05T04:52:37.067Z,5.1
2018-01-05T04:53:39.260Z,5.0
2018-01-05T04:54:41.368Z,4.4
2018-01-05T04:55:43.387Z,5.1
2018-01-05T04:56:45.681Z,4.8
2018-01-05T04:57:47.935Z,5.0
2018-01-05T04:58:50.072Z,5.1
2018-01-05T04:59:52.414Z,5.4
2018-01-05T05:00:54.569Z,4.6
2018-01-05T05:01:56.681Z,5.6
2018-01-05T05:02:58.634Z,5.2
2018-01-05T05:04:00.575Z,5.6
2018-01-05T05:05:02.449Z,4.9
2018-01-05T05:06:04.534Z,5.8
2018-01-05T05:07:06.873Z,5.4
2018-01-05T05:08:09.030Z,4.8
2018-01-05T05:09:11.114Z,5.8
2018-01-05T05:10:13.290Z,4.4
2018-01-05T05:11:25.018Z,5.4
2018-01-05T05:12:26.946Z,4.6
2018-01-05T05:13:28.930Z,5.0
2018-01-05T05:14:31.044Z,4.1
2018-01-05T05:15:33.149Z,3.9
2018-01-05T05:16:35.204Z,4.2
2018-01-05T05:17:37.232Z,4.4
2018-01-05T05:18:41.221Z,3.6
2018-01-05T05:19:43.395Z,3.7
2018-01-05T05:20:45.421Z,3.8
2018-01-05T05:21:47.813Z,4.2
2018-01-05T05:22:50.030Z,3.9
2018-01-05T05:23:52.315Z,3.6
2018-01-05T05:24:54.279Z,3.9
2018-01-05T05:25:56.381Z,4.6
2018-01-05T05:26:58.452Z,3.4
2018-01-05T05:28:00.559Z,4.2
2018-01-05T05:29:02.781Z,4.4
2018-01-05T05:30:04.801Z,3.8
2018-01-05T05:31:07.190Z,4.0
2018-01-05T05:32:09.290Z,4.5
2018-01-05T05:33:11.418Z,3.8
2018-01-05T05:34:13.505Z,3.7
2018-01-05T05:35:15.920Z,3.6
2018-01-05T05:36:18.125Z,4.0
2018-01-05T05:37:20.651Z,4.2
2018-01-05T05:38:22.746Z,3.7
2018-01-05T05:39:25.063Z,4.0
2018-01-05T05:40:27.323Z,4.2
2018-01-05T05:41:30.287Z,4.3
2018-01-05T05:42:32.506Z,4.2
2018-01-05T05:43:34.543Z,4.6
2018-01-05T05:44:37.440Z,4.0
2018-01-05T05:45:39.633Z,4.4
2018-01-05T05:46:42.776Z,3.6
2018-01-05T05:47:45.207Z,4.0
2018-01-05T05:48:47.550Z,3.8
2018-01-05T05:49:49.943Z,4.6
2018-01-05T05:50:52.480Z,3.8
2018-01-05T05:51:54.619Z,4.3
2018-01-05T05:52:56.631Z,4.5
2018-01-05T05:53:58.609Z,4.4
2018-01-05T05:55:00.838Z,3.7
2018-01-05T05:56:03.636Z,3.8
2018-01-05T05:57:06.269Z,3.9
2018-01-05T05:58:08.426Z,4.5
2018-01-05T05:59:10.788Z,3.9
2018-01-05T06:00:12.984Z,4.0
2018-01-05T06:01:15.085Z,4.4
2018-01-05T06:02:17.354Z,4.0
2018-01-05T06:03:19.763Z,4.6
2018-01-05T06:04:22.135Z,4.6
2018-01-05T06:05:24.298Z,4.1
2018-01-05T06:06:26.541Z,4.3
2018-01-05T06:07:28.855Z,4.6
2018-01-05T06:08:31.181Z,4.5
2018-01-05T06:09:33.178Z,4.6
2018-01-05T06:10:35.163Z,4.7
2018-01-05T06:11:37.300Z,4.4
2018-01-05T06:12:39.359Z,4.3
2018-01-05T06:13:41.660Z,4.8
2018-01-05T06:14:43.769Z,4.7
2018-01-05T06:15:46.128Z,4.1
2018-01-05T06:16:48.372Z,3.9
2018-01-05T06:17:50.459Z,4.4
2018-01-05T06:18:52.385Z,4.1
2018-01-05T06:19:54.177Z,4.4
2018-01-05T06:20:56.199Z,4.3
2018-01-05T06:21:58.367Z,4.8
2018-01-05T06:23:00.667Z,4.5
2018-01-05T06:24:02.815Z,3.6
2018-01-05T06:25:04.954Z,4.8
2018-01-05T06:26:06.986Z,4.7
2018-01-05T06:27:09.257Z,5.1
2018-01-05T06:28:11.377Z,3.7
2018-01-05T06:29:13.322Z,4.0
2018-01-05T06:30:15.464Z,4.6
2018-01-05T06:31:17.720Z,4.0
2018-01-05T06:32:19.804Z,5.2
2018-01-05T06:33:21.816Z,4.4
2018-01-05T06:34:23.785Z,3.8
2018-01-05T06:35:25.749Z,4.4
2018-01-05T06:36:27.855Z,3.9
2018-01-05T06:37:29.843Z,4.9
2018-01-05T06:38:31.852Z,5.0
2018-01-05T06:39:33.962Z,6.5
2018-01-05T06:40:35.857Z,6.0
2018-01-05T06:41:37.868Z,5.5
2018-01-05T06:42:39.779Z,5.0
2018-01-05T06:43:41.768Z,5.5
2018-01-05T06:44:43.918Z,6.2
2018-01-05T06:45:45.883Z,6.1
2018-01-05T06:46:47.879Z,5.8
2018-01-05T06:47:49.873Z,5.3
2018-01-05T06:48:51.803Z,4.5
2018-01-05T06:49:53.926Z,4.8
2018-01-05T06:50:55.985Z,4.6
2018-01-05T06:51:58.096Z,4.5
2018-01-05T06:53:00.324Z,5.1
2018-01-05T06:54:02.379Z,4.2
2018-01-05T06:55:04.366Z,4.4
2018-01-05T07:01:52.723Z,2.7
2018-01-05T07:02:54.382Z,3.9
2018-01-05T07:03:56.031Z,4.0
2018-01-05T07:04:57.669Z,3.7
2018-01-05T07:05:59.456Z,3.8
2018-01-05T07:07:01.804Z,3.7
2018-01-05T07:08:03.695Z,2.9
2018-01-05T07:09:05.554Z,2.8
2018-01-05T07:10:07.706Z,3.7
2018-01-05T07:11:09.732Z,4.8
2018-01-05T07:12:11.862Z,3.2
2018-01-05T07:13:14.040Z,4.4
2018-01-05T07:14:16.054Z,3.8
2018-01-05T07:15:18.564Z,3.0
2018-01-05T07:16:20.922Z,3.7
2018-01-05T07:17:23.061Z,6.1
2018-01-05T07:18:25.500Z,3.2
2018-01-05T07:19:27.683Z,3.5
2018-01-05T07:20:29.659Z,5.5
2018-01-05T07:21:31.688Z,4.4
2018-01-05T07:22:33.673Z,4.8
2018-01-05T07:23:49.488Z,4.6
2018-01-05T07:24:51.780Z,4.0
2018-01-05T07:25:53.608Z,3.7
2018-01-05T07:26:55.613Z,5.2
2018-01-05T07:27:57.576Z,3.3
2018-01-05T07:28:59.654Z,3.0
2018-01-05T07:30:01.703Z,2.7
2018-01-05T07:31:03.951Z,3.0
2018-01-05T07:32:06.129Z,3.3
2018-01-05T07:33:08.356Z,3.1
2018-01-05T07:34:10.463Z,3.4
2018-01-05T07:35:12.409Z,4.4
2018-01-05T07:36:14.619Z,3.1
2018-01-05T07:37:16.689Z,3.0
2018-01-05T07:38:18.864Z,3.4
2018-01-05T07:39:20.984Z,3.2
2018-01-05T07:40:23.133Z,3.4
2018-01-05T07:41:25.189Z,3.4
2018-01-05T07:42:27.312Z,3.4
2018-01-05T07:43:29.432Z,3.1
2018-01-05T07:44:31.585Z,3.6
2018-01-05T07:45:33.786Z,3.2
2018-01-05T07:46:35.784Z,3.6
2018-01-05T07:47:37.997Z,2.6
2018-01-05T07:48:40.074Z,3.2
2018-01-05T07:49:42.191Z,2.6
2018-01-05T07:50:44.237Z,3.3
2018-01-05T07:51:46.768Z,3.6
2018-01-05T07:52:48.722Z,3.7
2018-01-05T07:53:50.789Z,3.5
2018-01-05T07:54:52.899Z,3.4
2018-01-05T07:55:54.881Z,2.4
2018-01-05T07:56:56.831Z,3.1
2018-01-05T07:57:58.834Z,2.7
2018-01-05T07:59:00.999Z,3.5
2018-01-05T08:00:02.992Z,3.8
2018-01-05T08:01:05.000Z,3.2
2018-01-05T08:02:07.023Z,2.5
2018-01-05T08:03:08.997Z,2.4
2018-01-05T08:04:10.970Z,3.5
2018-01-05T08:05:12.953Z,2.8
2018-01-05T08:06:14.982Z,3.4
2018-01-05T08:07:17.103Z,3.1
2018-01-05T08:08:19.151Z,3.0
2018-01-05T08:09:21.211Z,3.3
2018-01-05T08:10:23.203Z,2.9
2018-01-05T08:11:25.191Z,3.3
2018-01-05T08:12:27.148Z,2.7
2018-01-05T08:13:29.131Z,3.1
2018-01-05T08:14:31.260Z,2.7
2018-01-05T08:15:33.352Z,2.5
2018-01-05T08:16:35.359Z,3.3
2018-01-05T08:17:37.358Z,2.7
2018-01-05T08:18:39.384Z,2.6
2018-01-05T08:19:41.301Z,2.5
2018-01-05T08:20:43.263Z,2.9
2018-01-05T08:21:45.319Z,3.0
2018-01-05T08:22:47.278Z,3.3
2018-01-05T08:23:49.296Z,3.3
2018-01-05T08:24:51.304Z,3.1
2018-01-05T08:25:53.279Z,2.8
2018-01-05T08:26:55.253Z,3.0
2018-01-05T08:27:57.225Z,2.8
2018-01-05T08:28:59.582Z,2.5
2018-01-05T08:30:01.626Z,2.9
2018-01-05T08:31:03.655Z,2.9
2018-01-05T08:32:05.579Z,2.6
2018-01-05T08:33:07.639Z,3.0
2018-01-05T08:34:09.685Z,3.0
2018-01-05T08:35:11.625Z,3.0
2018-01-05T08:36:13.639Z,2.7
2018-01-05T08:37:15.523Z,2.9
2018-01-05T08:38:17.509Z,3.1
2018-01-05T08:39:19.500Z,3.2
2018-01-05T08:40:21.528Z,3.2
2018-01-05T08:41:23.498Z,3.4
2018-01-05T08:42:25.447Z,2.3
2018-01-05T08:43:27.411Z,2.7
2018-01-05T08:44:29.375Z,3.5
2018-01-05T08:45:31.290Z,3.2
2018-01-05T08:46:33.315Z,3.2
2018-01-05T08:47:35.330Z,2.6
2018-01-05T08:48:37.340Z,2.7
2018-01-05T08:49:39.392Z,2.9
2018-01-05T08:50:41.380Z,3.4
2018-01-05T08:51:43.441Z,2.7
2018-01-05T08:52:45.412Z,3.0
2018-01-05T08:53:47.353Z,3.4
2018-01-05T08:54:49.368Z,3.2
2018-01-05T08:55:51.394Z,3.4
2018-01-05T08:56:53.372Z,3.8
2018-01-05T08:57:55.299Z,3.8
2018-01-05T08:58:57.288Z,3.5
2018-01-05T08:59:59.315Z,3.6
2018-01-05T09:01:01.385Z,3.4
2018-01-05T09:02:03.312Z,3.5
2018-01-05T09:03:05.470Z,3.2
2018-01-05T09:04:07.444Z,2.9
2018-01-05T09:05:09.428Z,3.3
2018-01-05T09:06:11.392Z,3.4
2018-01-05T09:07:13.372Z,3.5
2018-01-05T09:08:15.258Z,3.1
2018-01-05T09:09:17.310Z,2.9
2018-01-05T09:10:19.444Z,3.3
2018-01-05T09:11:21.439Z,3.0
2018-01-05T09:12:23.364Z,3.8
2018-01-05T09:13:25.409Z,4.0
2018-01-05T09:14:27.390Z,3.5
2018-01-05T09:15:29.407Z,3.3
2018-01-05T09:16:31.386Z,4.6
2018-01-05T09:17:33.260Z,4.5
2018-01-05T09:18:35.245Z,3.4
2018-01-05T09:19:37.175Z,3.7
2018-01-05T09:20:39.205Z,3.3
2018-01-05T09:21:41.382Z,3.8
2018-01-05T09:22:43.351Z,3.3
2018-01-05T09:23:46.035Z,3.3
2018-01-05T09:24:48.122Z,3.6
2018-01-05T09:25:50.161Z,4.4
2018-01-05T09:26:52.216Z,3.9
2018-01-05T09:27:54.216Z,3.5
2018-01-05T09:28:56.364Z,3.7
2018-01-05T09:29:58.372Z,3.1
2018-01-05T09:31:00.321Z,4.1
2018-01-05T09:32:02.280Z,3.2
2018-01-05T09:33:04.295Z,3.1
2018-01-05T09:34:06.331Z,3.7
2018-01-05T09:35:08.245Z,3.3
2018-01-05T09:36:10.350Z,4.1
2018-01-05T09:37:12.355Z,4.1
2018-01-05T09:38:14.372Z,4.0
2018-01-05T09:39:16.316Z,3.5
2018-01-05T09:40:18.334Z,3.5
2018-01-05T09:41:20.278Z,3.5
2018-01-05T09:42:22.189Z,3.3
2018-01-05T09:43:24.132Z,3.3
2018-01-05T09:44:26.137Z,3.5
2018-01-05T09:45:28.204Z,3.6
2018-01-05T09:46:30.119Z,3.2
2018-01-05T09:47:32.049Z,3.6
2018-01-05T09:48:34.060Z,3.4
2018-01-05T09:49:36.067Z,3.3
2018-01-05T09:50:38.055Z,3.7
2018-01-05T09:51:40.060Z,4.1
2018-01-05T09:52:42.005Z,3.6
2018-01-05T09:53:43.940Z,3.2
2018-01-05T09:54:45.907Z,4.1
2018-01-05T09:55:47.948Z,3.7
2018-01-05T09:56:49.930Z,3.5
2018-01-05T09:57:51.896Z,3.7
2018-01-05T09:58:53.857Z,4.2
2018-01-05T09:59:55.920Z,4.3
2018-01-05T10:00:57.950Z,4.3
2018-01-05T10:01:59.930Z,3.6
2018-01-05T10:03:01.864Z,4.4
2018-01-05T10:04:04.001Z,5.1
2018-01-05T10:05:05.909Z,4.3
2018-01-05T10:06:07.999Z,3.9
2018-01-05T10:07:09.954Z,3.6
2018-01-05T10:08:11.712Z,3.9
2018-01-05T10:09:13.464Z,4.2
2018-01-05T10:10:15.210Z,4.3
2018-01-05T10:11:16.954Z,3.8
2018-01-05T10:12:18.741Z,3.3
2018-01-05T10:13:20.499Z,3.9
2018-01-05T10:14:22.257Z,4.5
2018-01-05T10:15:23.968Z,3.6
2018-01-05T10:16:25.673Z,3.1
2018-01-05T10:17:27.415Z,4.2
2018-01-05T10:18:29.142Z,4.1
2018-01-05T10:19:30.888Z,4.0
2018-01-05T10:20:32.620Z,4.4
2018-01-05T10:21:34.374Z,4.6
2018-01-05T10:22:36.099Z,3.8
2018-01-05T10:23:37.861Z,4.4
2018-01-05T10:24:39.716Z,3.6
2018-01-05T10:25:41.476Z,4.5
2018-01-05T10:26:43.378Z,3.9
2018-01-05T10:27:45.140Z,4.0
2018-01-05T10:28:46.850Z,4.2
2018-01-05T10:29:48.616Z,4.4
2018-01-05T10:30:50.428Z,4.6
2018-01-05T10:31:52.306Z,3.9
2018-01-05T10:32:54.122Z,4.4
2018-01-05T10:33:56.014Z,3.4
2018-01-05T10:34:57.773Z,4.4
2018-01-05T10:35:59.398Z,4.4
2018-01-05T10:37:01.092Z,3.8
2018-01-05T10:38:02.786Z,4.7
2018-01-05T10:39:04.505Z,4.3
2018-01-05T10:40:06.218Z,4.4
2018-01-05T10:41:07.885Z,4.1
2018-01-05T10:42:09.643Z,4.1
2018-01-05T10:43:11.390Z,4.2
2018-01-05T10:44:13.205Z,4.2
2018-01-05T10:45:14.996Z,3.4
2018-01-05T10:46:16.832Z,4.0
2018-01-05T10:47:18.694Z,4.1
2018-01-05T10:48:20.461Z,4.2
2018-01-05T10:49:22.220Z,3.6
2018-01-05T10:50:24.033Z,3.5
2018-01-05T10:51:25.803Z,3.6
2018-01-05T10:52:27.555Z,4.6
2018-01-05T10:53:29.296Z,4.5
2018-01-05T10:54:31.112Z,4.1
2018-01-05T10:55:32.895Z,3.3
2018-01-05T11:01:27.522Z,3.8
2018-01-05T11:02:29.183Z,5.4
2018-01-05T11:03:30.857Z,4.9
2018-01-05T11:04:32.499Z,3.8
2018-01-05T11:05:34.154Z,3.8
2018-01-05T11:06:35.827Z,3.6
2018-01-05T11:07:37.466Z,3.6
2018-01-05T11:08:39.169Z,4.0
2018-01-05T11:09:40.821Z,3.6
2018-01-05T11:10:42.480Z,5.0
2018-01-05T11:11:44.161Z,3.8
2018-01-05T11:12:45.874Z,3.7
2018-01-05T11:13:47.530Z,3.6
2018-01-05T11:14:49.235Z,4.2
2018-01-05T11:15:50.893Z,4.2
2018-01-05T11:16:52.567Z,4.4
2018-01-05T11:17:54.218Z,4.8
2018-01-05T11:18:55.908Z,4.1
2018-01-05T11:19:57.564Z,3.6
2018-01-05T11:20:59.225Z,4.1
2018-01-05T11:22:00.883Z,4.5
2018-01-05T11:23:02.566Z,4.3
2018-01-05T11:24:04.217Z,3.6
2018-01-05T11:25:05.876Z,4.3
2018-01-05T11:26:07.540Z,4.0
2018-01-05T11:27:09.305Z,4.3
2018-01-05T11:28:10.973Z,4.3
2018-01-05T11:29:12.658Z,4.3
2018-01-05T11:30:14.331Z,4.4
2018-01-05T11:31:15.984Z,4.0
2018-01-05T11:32:17.641Z,3.8
2018-01-05T11:33:19.311Z,4.1
2018-01-05T11:34:20.957Z,3.4
2018-01-05T11:35:25.797Z,3.6
2018-01-05T11:36:27.446Z,3.5
2018-01-05T11:37:29.150Z,3.8
2018-01-05T11:38:30.801Z,3.8
2018-01-05T11:39:40.031Z,3.9
2018-01-05T11:40:41.763Z,4.5
2018-01-05T11:41:43.547Z,3.5
2018-01-05T11:42:45.321Z,3.7
2018-01-05T11:43:47.093Z,3.8
2018-01-05T11:44:48.826Z,4.3
2018-01-05T11:45:50.662Z,4.7
2018-01-05T11:46:52.437Z,6.2
2018-01-05T11:47:54.231Z,4.1
2018-01-05T11:48:56.023Z,4.4
2018-01-05T11:49:57.787Z,4.4
2018-01-05T11:50:59.858Z,4.5
2018-01-05T11:52:01.866Z,4.2
2018-01-05T11:53:03.656Z,3.7
2018-01-05T11:54:05.415Z,4.4
2018-01-05T11:55:07.286Z,4.0
2018-01-05T11:56:09.683Z,4.7
2018-01-05T11:57:11.446Z,4.0
2018-01-05T11:58:13.165Z,4.4
2018-01-05T11:59:14.888Z,3.8
2018-01-05T12:00:17.551Z,3.6
2018-01-05T12:01:19.308Z,3.9
2018-01-05T12:02:21.060Z,3.9
2018-01-05T12:03:22.815Z,4.1
2018-01-05T12:04:24.997Z,4.0
2018-01-05T12:05:26.773Z,4.3
2018-01-05T12:06:28.520Z,4.8
2018-01-05T12:07:30.255Z,4.3
2018-01-05T12:08:32.033Z,3.7
2018-01-05T12:09:33.852Z,4.1
2018-01-05T12:10:35.629Z,4.2
2018-01-05T12:11:37.414Z,4.0
2018-01-05T12:12:39.252Z,4.0
2018-01-05T12:13:41.049Z,4.7
2018-01-05T12:14:42.826Z,4.1
2018-01-05T12:15:44.630Z,5.2
2018-01-05T12:16:46.491Z,4.7
2018-01-05T12:17:48.248Z,5.2
2018-01-05T12:18:50.016Z,6.5
2018-01-05T12:19:51.771Z,4.4
2018-01-05T12:20:53.544Z,4.5
2018-01-05T12:21:55.287Z,4.4
2018-01-05T12:22:57.049Z,4.5
2018-01-05T12:23:58.849Z,3.7
2018-01-05T12:25:00.674Z,5.0
2018-01-05T12:26:02.404Z,4.8
2018-01-05T12:27:04.170Z,5.2
2018-01-05T12:28:05.953Z,4.5
2018-01-05T12:29:07.727Z,4.0
2018-01-05T12:30:09.538Z,3.9
2018-01-05T12:31:11.350Z,4.5
2018-01-05T12:32:13.115Z,4.7
2018-01-05T12:33:14.910Z,4.4
2018-01-05T12:34:16.680Z,4.4
2018-01-05T12:35:18.456Z,4.6
2018-01-05T12:36:20.233Z,4.4
2018-01-05T12:37:22.025Z,5.0
2018-01-05T12:38:23.825Z,5.1
2018-01-05T12:39:25.607Z,4.2
2018-01-05T12:40:27.353Z,5.3
2018-01-05T12:41:29.128Z,4.8
2018-01-05T12:42:30.933Z,5.4
2018-01-05T12:43:32.841Z,5.9
2018-01-05T12:44:34.623Z,5.2
2018-01-05T12:45:36.366Z,4.7
2018-01-05T12:46:38.163Z,5.4
2018-01-05T12:47:39.932Z,3.9
2018-01-05T12:48:41.721Z,4.6
2018-01-05T12:49:43.574Z,4.6
2018-01-05T12:50:45.393Z,4.4
2018-01-05T12:51:47.179Z,4.8
2018-01-05T12:52:48.964Z,3.7
2018-01-05T12:53:50.724Z,4.4
2018-01-05T12:54:52.553Z,4.9
2018-01-05T12:55:54.323Z,5.5
2018-01-05T12:56:56.172Z,4.7
2018-01-05T12:57:57.946Z,4.8
2018-01-05T12:58:59.720Z,4.6
2018-01-05T13:00:01.531Z,4.4
2018-01-05T13:01:03.264Z,4.4
2018-01-05T13:02:05.032Z,4.7
2018-01-05T13:03:06.816Z,5.2
2018-01-05T13:04:08.661Z,5.2
2018-01-05T13:05:10.493Z,5.3
2018-01-05T13:06:12.269Z,5.6
2018-01-05T13:07:14.062Z,5.6
2018-01-05T13:08:15.967Z,5.7
2018-01-05T13:09:17.829Z,4.3
2018-01-05T13:10:19.581Z,5.0
2018-01-05T13:11:25.349Z,5.0
2018-01-05T13:12:26.725Z,7.1
2018-01-05T13:13:28.705Z,7.3
2018-01-05T13:14:30.593Z,10.2
2018-01-05T13:15:32.578Z,7.0
2018-01-05T13:16:34.334Z,8.6
2018-01-05T13:17:36.482Z,5.4
2018-01-05T13:18:38.293Z,5.8
2018-01-05T13:19:40.144Z,6.0
2018-01-05T13:20:41.978Z,4.8
2018-01-05T13:21:43.810Z,4.9
2018-01-05T13:22:45.609Z,6.4
2018-01-05T13:23:47.495Z,6.0
2018-01-05T13:24:49.388Z,7.8
2018-01-05T13:25:51.208Z,7.4
2018-01-05T13:26:53.313Z,7.4
2018-01-05T13:27:55.142Z,6.7
2018-01-05T13:28:56.914Z,6.6
2018-01-05T13:29:58.739Z,7.1
2018-01-05T13:31:00.536Z,8.3
2018-01-05T13:32:02.337Z,6.7
2018-01-05T13:33:04.128Z,7.6
2018-01-05T13:34:05.922Z,8.1
2018-01-05T13:35:07.866Z,8.4
2018-01-05T13:36:09.686Z,9.9
2018-01-05T13:37:11.484Z,10.5
2018-01-05T13:38:13.206Z,9.2
2018-01-05T13:39:14.951Z,9.6
2018-01-05T13:40:16.883Z,7.9
2018-01-05T13:41:18.619Z,7.2
2018-01-05T13:42:20.409Z,6.9
2018-01-05T13:43:22.198Z,7.6
2018-01-05T13:44:24.084Z,7.2
2018-01-05T13:45:25.914Z,7.8
2018-01-05T13:46:27.780Z,8.2
2018-01-05T13:47:29.604Z,9.0
2018-01-05T13:48:31.479Z,9.0
2018-01-05T13:49:33.360Z,8.8
2018-01-05T13:50:35.296Z,9.3
2018-01-05T13:51:37.219Z,8.7
2018-01-05T13:52:39.039Z,6.2
2018-01-05T13:53:40.881Z,8.2
2018-01-05T13:54:42.775Z,8.0
2018-01-05T13:55:44.553Z,7.6
2018-01-05T13:56:48.168Z,8.7
2018-01-05T13:57:50.001Z,7.2
2018-01-05T13:58:51.961Z,7.7
2018-01-05T13:59:53.883Z,6.6
2018-01-05T14:00:55.729Z,7.0
2018-01-05T14:01:57.600Z,10.1
2018-01-05T14:02:59.422Z,8.1
2018-01-05T14:04:01.245Z,5.5
2018-01-05T14:05:03.153Z,5.8
2018-01-05T14:06:05.038Z,6.1
2018-01-05T14:07:06.842Z,6.5
2018-01-05T14:08:08.683Z,7.0
2018-01-05T14:09:11.809Z,5.7
2018-01-05T14:10:13.598Z,4.8
2018-01-05T14:11:15.458Z,6.4
2018-01-05T14:12:17.238Z,5.7
2018-01-05T14:13:19.173Z,5.4
2018-01-05T14:14:21.009Z,7.1
2018-01-05T14:15:22.898Z,6.9
2018-01-05T14:16:24.749Z,7.6
2018-01-05T14:17:26.516Z,7.0
2018-01-05T14:18:28.387Z,6.7
2018-01-05T14:19:30.205Z,6.6
2018-01-05T14:20:32.071Z,6.7
2018-01-05T14:21:33.922Z,6.8
2018-01-05T14:22:35.751Z,8.2
2018-01-05T14:23:37.791Z,8.7
2018-01-05T14:24:39.817Z,9.3
2018-01-05T14:25:41.718Z,9.7
2018-01-05T14:26:43.552Z,11.5
2018-01-05T14:27:45.329Z,10.5
2018-01-05T14:28:47.138Z,10.4